createdAt,value
2017-08-03T00:08:11.000Z,1006.655
2017-08-03T00:18:11.000Z,1007.001
2017-08-03T00:28:11.000Z,1006.668
2017-08-03T00:38:11.000Z,1006.604
2017-08-03T00:48:11.000Z,1006.354
2017-08-03T00:58:11.000Z,1006.039
2017-08-03T01:08:11.000Z,1005.985
2017-08-03T01:18:11.000Z,1005.815
2017-08-03T01:28:11.000Z,1005.546
2017-08-03T01:38:11.000Z,1005.485
2017-08-03T01:48:11.000Z,1005.301
2017-08-03T01:58:11.000Z,1005.049
2017-08-03T02:08:11.000Z,1004.911
2017-08-03T02:18:11.000Z,1004.663
2017-08-03T02:28:11.000Z,1004.875
2017-08-03T02:38:11.000Z,1004.954
2017-08-03T02:48:11.000Z,1004.665
2017-08-03T02:58:11.000Z,1004.519
2017-08-03T03:08:11.000Z,1004.41
2017-08-03T03:18:11.000Z,1004.295
2017-08-03T03:28:11.000Z,1004.244
2017-08-03T03:38:11.000Z,1003.868
2017-08-03T03:48:11.000Z,1003.36
2017-08-03T04:08:11.000Z,1003.097
2017-08-03T04:18:11.000Z,1003.052
2017-08-03T04:28:11.000Z,1002.906
2017-08-03T04:38:12.000Z,1002.756
2017-08-03T04:48:11.000Z,1003.204
2017-08-03T04:58:12.000Z,1003.127
2017-08-03T05:08:12.000Z,1002.881
2017-08-03T05:18:12.000Z,1002.751
2017-08-03T05:28:12.000Z,1002.392
2017-08-03T05:38:12.000Z,1002.305
2017-08-03T05:48:12.000Z,1002.49
2017-08-03T05:58:12.000Z,1002.376
2017-08-03T06:08:12.000Z,1002.301
2017-08-03T06:18:12.000Z,1002.309
2017-08-03T06:28:12.000Z,1002.158
2017-08-03T06:38:12.000Z,1002.051
2017-08-03T06:48:13.000Z,1002.189
2017-08-03T06:58:12.000Z,1002.276
2017-08-03T07:08:12.000Z,1002.306
2017-08-03T07:18:12.000Z,1002.27
2017-08-03T07:28:12.000Z,1002.286
2017-08-03T07:38:12.000Z,1002.173
2017-08-03T07:48:12.000Z,1001.991
2017-08-03T07:58:13.000Z,1002.065
2017-08-03T08:08:12.000Z,1002.149
2017-08-03T08:18:12.000Z,1002.164
2017-08-03T08:28:12.000Z,1002.11
2017-08-03T08:38:12.000Z,1002.149
2017-08-03T08:48:13.000Z,1002.149
2017-08-03T08:58:12.000Z,1001.993
2017-08-03T09:08:12.000Z,1001.881
2017-08-03T09:18:12.000Z,1002.028
2017-08-03T09:28:12.000Z,1001.857
2017-08-03T09:38:12.000Z,1001.785
2017-08-03T09:48:12.000Z,1001.725
2017-08-03T09:58:12.000Z,1001.659
2017-08-03T10:08:12.000Z,1001.618
2017-08-03T10:18:12.000Z,1001.611
2017-08-03T10:28:12.000Z,1001.559
2017-08-03T10:38:12.000Z,1001.568
2017-08-03T10:48:13.000Z,1001.47
2017-08-03T10:58:12.000Z,1001.445
2017-08-03T11:08:12.000Z,1001.612
2017-08-03T11:18:12.000Z,1001.839
2017-08-03T11:28:12.000Z,1002.002
2017-08-03T11:38:12.000Z,1002.154
2017-08-03T11:48:12.000Z,1002.335
2017-08-03T11:58:12.000Z,1002.426
2017-08-03T12:08:13.000Z,1002.323
2017-08-03T12:18:12.000Z,1002.233
2017-08-03T12:28:12.000Z,1002.142
2017-08-03T12:38:12.000Z,1002.188
2017-08-03T12:48:13.000Z,1002.101
2017-08-03T12:58:12.000Z,1001.92
2017-08-03T13:08:13.000Z,1001.93
2017-08-03T13:18:13.000Z,1002.082
2017-08-03T13:28:13.000Z,1002.04
2017-08-03T13:38:13.000Z,1002.149
2017-08-03T13:48:13.000Z,1001.999
2017-08-03T13:58:13.000Z,1001.96
2017-08-03T14:08:13.000Z,1001.929
2017-08-03T14:18:13.000Z,1001.844
2017-08-03T14:28:13.000Z,1001.976
2017-08-03T14:38:13.000Z,1001.97
2017-08-03T14:48:13.000Z,1002.018
2017-08-03T14:58:13.000Z,1001.942
2017-08-03T15:08:13.000Z,1001.94
2017-08-03T15:18:13.000Z,1001.983
2017-08-03T15:28:13.000Z,1002.047
2017-08-03T15:38:13.000Z,1002.025
2017-08-03T15:48:13.000Z,1002.073
2017-08-03T15:58:13.000Z,1002.22
2017-08-03T16:08:13.000Z,1002.196
2017-08-03T16:18:13.000Z,1002.309
2017-08-03T16:28:13.000Z,1002.425
2017-08-03T16:38:13.000Z,1002.335
2017-08-03T16:48:13.000Z,1002.441
2017-08-03T16:58:13.000Z,1002.382
2017-08-03T17:08:13.000Z,1002.452
2017-08-03T17:18:13.000Z,1002.526
2017-08-03T17:28:13.000Z,1002.592
2017-08-03T17:38:13.000Z,1002.692
2017-08-03T17:48:13.000Z,1002.689
2017-08-03T17:58:13.000Z,1002.704
2017-08-03T18:08:13.000Z,1002.873
2017-08-03T18:18:13.000Z,1002.882
2017-08-03T18:28:13.000Z,1002.915
2017-08-03T18:38:13.000Z,1003.081
2017-08-03T18:48:13.000Z,1003.096
2017-08-03T18:58:13.000Z,1003.131
2017-08-03T19:08:13.000Z,1003.201
2017-08-03T19:18:13.000Z,1003.216
2017-08-03T19:28:13.000Z,1003.489
2017-08-03T19:38:13.000Z,1003.447
2017-08-03T19:48:13.000Z,1003.614
2017-08-03T19:58:13.000Z,1003.695
2017-08-03T20:08:13.000Z,1003.751
2017-08-03T20:18:14.000Z,1003.914
2017-08-03T20:38:13.000Z,1004.075
2017-08-03T20:48:13.000Z,1004.053
2017-08-03T20:58:13.000Z,1003.997
2017-08-03T21:08:13.000Z,1003.955
2017-08-03T21:18:13.000Z,1003.823
2017-08-03T21:28:14.000Z,1003.793
2017-08-03T21:38:14.000Z,1003.796
2017-08-03T21:48:14.000Z,1003.812
2017-08-03T21:58:14.000Z,1003.76
2017-08-03T22:08:14.000Z,1003.813
2017-08-03T22:18:14.000Z,1003.714
2017-08-03T22:28:14.000Z,1003.594
2017-08-03T22:38:14.000Z,1003.559
2017-08-03T22:48:13.000Z,1003.461
2017-08-03T22:58:14.000Z,1003.545
2017-08-03T23:08:14.000Z,1003.512
2017-08-03T23:18:14.000Z,1003.507
2017-08-03T23:38:14.000Z,1003.448
2017-08-03T23:48:14.000Z,1003.31
